Flight Track Log - Related Links

Times and Time Zones

All times are in EDT time to prevent confusion due to time zone crossing. See the N217TM flight status page for this flight to view local times or setup timezone preferences in your user account.

Time Position Orientation Groundspeed Altitude Reporting Facility
EDT Latitude Longitude Course Direction KTS MPH feet Rate Location/Type
Fri 03:18:49 PM 41.5672 -91.5292 205° Southwest 139 160 3,900  Level Chicago Center
Fri 03:19:51 PM 41.5300 -91.5547 207° Southwest 149 171 5,400 1,548 Climbing Chicago Center
Fri 03:20:53 PM 41.4944 -91.5786 207° Southwest 144 166 7,100 1,694 Climbing Chicago Center
Fri 03:21:55 PM 41.4533 -91.6031 204° Southwest 138 159 8,900 1,584 Climbing Chicago Center
Fri 03:22:58 PM 41.4197 -91.6264 208° Southwest 136 157 10,400 1,392 Climbing Chicago Center
Fri 03:24:00 PM 41.3054 -91.7612 205° Southwest  Level Estimated
Fri 03:24:00 PM 41.3842 -91.6478 204° Southwest 141 162 11,800  Level Chicago Center
Fri 03:25:02 PM 41.3481 -91.6725 207° Southwest 146 168 13,300 1,065 Climbing Chicago Center
Fri 03:26:04 PM 41.3081 -91.6975 205° Southwest 159 183 14,000 339 Climbing Chicago Center
Fri 03:27:06 PM 41.2456 -91.7372 206° Southwest 209 241 14,000 48 Level Chicago Center
Fri 03:28:08 PM 41.1950 -91.7708 207° Southwest 225 259 14,100 480 Climbing Chicago Center
Fri 03:29:11 PM 41.1314 -91.8100 205° Southwest 214 246 15,000 629 Climbing Chicago Center
Fri 03:30:12 PM 41.0758 -91.8458 206° Southwest 222 255 15,400 780 Climbing Chicago Center
Fri 03:31:14 PM 41.0253 -91.8772 205° Southwest 207 238 16,600 774 Climbing Chicago Center
Fri 03:32:16 PM 40.9747 -91.9108 207° Southwest 205 236 17,000 242 Climbing Chicago Center
Fri 03:33:18 PM 40.9189 -91.9461 206° Southwest 218 251 17,100 672 Climbing Chicago Center
Fri 03:34:21 PM 40.8556 -91.9853 205° Southwest 211 243 18,400 1,200 Climbing Chicago Center
Fri 03:35:23 PM 40.8089 -92.0147 206° Southwest 190 219 19,600 1,161 Climbing Chicago Center
Fri 03:36:25 PM 40.7639 -92.0433 206° Southwest 181 208 20,800 1,210 Climbing Chicago Center
Fri 03:37:27 PM 40.7208 -92.0711 206° Southwest 174 200 22,100 1,161 Climbing Chicago Center
Fri 03:38:29 PM 40.6800 -92.0953 204° Southwest 164 189 23,200 919 Climbing Chicago Center
Fri 03:39:31 PM 40.6319 -92.1264 206° Southwest 164 189 24,000 511 Climbing Chicago Center
Fri 03:40:03 PM 40.6128 -92.1383 205° Southwest 169 194 24,000  Level Kansas City Center
Fri 03:41:04 PM 40.5606 -92.1706 205° Southwest 199 229 24,000  Level Kansas City Center
Fri 03:42:08 PM 40.4939 -92.2128 206° Southwest 219 252 24,000  Level Kansas City Center
Fri 03:43:09 PM 40.4364 -92.2486 205° Southwest 227 261 24,000  Level Kansas City Center
Fri 03:44:11 PM 40.3789 -92.2839 205° Southwest 228 262 24,000  Level Kansas City Center
Fri 03:44:42 PM 40.3444 -92.3058 206° Southwest 228 262 24,000  Level Chicago Center
Fri 03:45:14 PM 40.3214 -92.3197 205° Southwest 228 262 24,000  Level Kansas City Center
Fri 03:46:15 PM 40.2622 -92.3558 205° Southwest 226 260 24,000  Level Kansas City Center
Fri 03:47:19 PM 40.1986 -92.3956 206° Southwest 226 260 24,000  Level Kansas City Center
Fri 03:48:20 PM 40.1436 -92.4292 205° Southwest 227 261 24,000  Level Kansas City Center
Fri 03:49:21 PM 40.0806 -92.4689 206° Southwest 226 260 24,000  Level Kansas City Center
Fri 03:50:24 PM 40.0250 -92.5033 205° Southwest 226 260 24,000  Level Kansas City Center
Fri 03:51:25 PM 39.9675 -92.5383 205° Southwest 228 262 24,000  Level Kansas City Center
Fri 03:52:30 PM 39.9111 -92.5736 206° Southwest 227 261 24,000  Level Kansas City Center
Fri 03:53:30 PM 39.8531 -92.6075 204° Southwest 229 264 24,000  Level Kansas City Center
Fri 03:54:32 PM 39.7853 -92.6506 206° Southwest 228 262 24,000  Level Kansas City Center
Fri 03:55:34 PM 39.7278 -92.6844 204° Southwest 228 262 24,000  Level Kansas City Center
Fri 03:56:37 PM 39.6703 -92.7200 205° Southwest 229 264 24,000  Level Kansas City Center
Fri 03:57:38 PM 39.6125 -92.7553 205° Southwest 230 265 24,000  Level Kansas City Center
Fri 03:58:41 PM 39.5553 -92.7881 204° Southwest 228 262 24,000  Level Kansas City Center
Fri 03:59:41 PM 39.4881 -92.8306 206° Southwest 226 260 24,000  Level Kansas City Center
Fri 04:00:45 PM 39.4319 -92.8642 205° Southwest 224 258 24,000  Level Kansas City Center
Fri 04:01:46 PM 39.3758 -92.8981 205° Southwest 224 258 24,000  Level Kansas City Center
Fri 04:02:49 PM 39.3197 -92.9319 205° Southwest 224 258 24,000  Level Kansas City Center
Fri 04:03:49 PM 39.2633 -92.9661 205° Southwest 224 258 24,000  Level Kansas City Center
Fri 04:04:53 PM 39.1961 -93.0061 205° Southwest 223 257 24,000  Level Kansas City Center
Fri 04:05:55 PM 39.1408 -93.0394 205° Southwest 221 254 24,000  Level Kansas City Center
Fri 04:06:58 PM 39.0844 -93.0731 205° Southwest 224 258 24,000  Level Kansas City Center
Fri 04:07:58 PM 39.0283 -93.1072 205° Southwest 223 257 24,000  Level Kansas City Center
Fri 04:09:02 PM 38.9628 -93.1453 204° Southwest 223 257 24,000  Level Kansas City Center
Fri 04:10:02 PM 38.9061 -93.1803 206° Southwest 223 257 24,000  Level Kansas City Center
Fri 04:11:06 PM 38.8497 -93.2122 204° Southwest 222 255 24,000  Level Kansas City Center
Fri 04:12:06 PM 38.7928 -93.2469 205° Southwest 225 259 24,000  Level Kansas City Center
Fri 04:13:10 PM 38.7372 -93.2786 204° Southwest 223 257 24,000  Level Kansas City Center
Fri 04:14:10 PM 38.6800 -93.3125 205° Southwest 223 257 24,000  Level Kansas City Center
Fri 04:15:12 PM 38.6119 -93.3539 205° Southwest 224 258 24,000  Level Kansas City Center
Fri 04:16:16 PM 38.5550 -93.3872 205° Southwest 225 259 24,000  Level Kansas City Center
Fri 04:17:18 PM 38.4975 -93.4208 205° Southwest 226 260 24,000  Level Kansas City Center
Fri 04:18:18 PM 38.4400 -93.4539 204° Southwest 227 261 24,000  Level Kansas City Center
Fri 04:19:22 PM 38.3819 -93.4878 205° Southwest 228 262 24,000  Level Kansas City Center
Fri 04:20:22 PM 38.3247 -93.5214 205° Southwest 227 261 24,000  Level Kansas City Center
Fri 04:21:26 PM 38.2561 -93.5614 205° Southwest 227 261 24,000  Level Kansas City Center
Fri 04:22:27 PM 38.1978 -93.5953 205° Southwest 229 264 24,000  Level Kansas City Center
Fri 04:23:31 PM 38.1411 -93.6286 205° Southwest 226 260 24,000  Level Kansas City Center
Fri 04:24:32 PM 38.0831 -93.6619 204° Southwest 227 261 24,000  Level Kansas City Center
Fri 04:25:33 PM 38.0261 -93.6944 204° Southwest 225 259 24,000  Level Kansas City Center
Fri 04:26:36 PM 37.9692 -93.7278 205° Southwest 226 260 24,000  Level Kansas City Center
Fri 04:27:38 PM 37.8986 -93.7683 204° Southwest 229 264 24,000  Level Kansas City Center
Fri 04:28:41 PM 37.8419 -93.8017 205° Southwest 227 261 24,000  Level Kansas City Center
Fri 04:29:41 PM 37.7853 -93.8339 204° Southwest 225 259 24,000  Level Kansas City Center
Fri 04:30:46 PM 37.7275 -93.8672 205° Southwest 227 261 24,000  Level Kansas City Center
Fri 04:31:46 PM 37.6694 -93.8989 203° Southwest 227 261 24,000  Level Kansas City Center
Fri 04:32:48 PM 37.6122 -93.9328 205° Southwest 227 261 24,000  Level Kansas City Center
Fri 04:33:51 PM 37.5436 -93.9719 204° Southwest 225 259 24,000  Level Kansas City Center
Fri 04:34:53 PM 37.4850 -94.0042 204° Southwest 227 261 24,000  Level Kansas City Center
Fri 04:35:54 PM 37.4272 -94.0367 204° Southwest 227 261 24,000  Level Kansas City Center
Fri 04:36:57 PM 37.3703 -94.0692 204° Southwest 226 260 24,000  Level Kansas City Center
Fri 04:37:58 PM 37.3078 -94.1036 204° Southwest 226 260 24,000  Level Kansas City Center
Fri 04:39:01 PM 37.2494 -94.1375 205° Southwest 228 262 24,000  Level Kansas City Center
Fri 04:40:01 PM 37.1906 -94.1694 203° Southwest 229 264 24,000  Level Kansas City Center
Fri 04:41:05 PM 37.1336 -94.2019 204° Southwest 226 260 24,000  Level Kansas City Center
Fri 04:42:06 PM 37.0758 -94.2344 204° Southwest 227 261 24,000  Level Kansas City Center
Fri 04:43:10 PM 37.0058 -94.2733 204° Southwest 227 261 24,000  Level Kansas City Center
Fri 04:44:11 PM 36.9492 -94.3069 205° Southwest 226 260 24,000  Level Kansas City Center
Fri 04:45:14 PM 36.8911 -94.3403 205° Southwest 228 262 24,000  Level Kansas City Center
Fri 04:46:15 PM 36.8308 -94.3719 203° Southwest 231 266 24,000  Level Kansas City Center
Fri 04:47:18 PM 36.7733 -94.4050 205° Southwest 229 264 24,000  Level Kansas City Center
Fri 04:48:19 PM 36.7158 -94.4364 204° Southwest 227 261 24,000  Level Kansas City Center
Fri 04:49:20 PM 36.6572 -94.4689 204° Southwest 228 262 24,000  Level Kansas City Center
Fri 04:50:23 PM 36.5878 -94.5081 204° Southwest 227 261 24,000  Level Kansas City Center
Fri 04:51:26 PM 36.5294 -94.5408 204° Southwest 228 262 24,000  Level Kansas City Center
Fri 04:52:27 PM 36.4714 -94.5736 204° Southwest 229 264 24,000  Level Kansas City Center
Fri 04:53:28 PM 36.4125 -94.6047 203° Southwest 228 262 24,000  Level Kansas City Center
Fri 04:54:31 PM 36.3536 -94.6381 205° Southwest 229 264 24,000  Level Kansas City Center
Fri 04:55:32 PM 36.2967 -94.6697 204° Southwest 226 260 24,000  Level Kansas City Center
Fri 04:56:37 PM 36.2381 -94.7031 205° Southwest 228 262 24,000  Level Kansas City Center
Fri 04:57:37 PM 36.1689 -94.7431 205° Southwest 228 262 24,000  Level Kansas City Center
Fri 04:58:39 PM 36.1106 -94.7761 205° Southwest 229 264 24,000  Level Kansas City Center
Fri 04:59:43 PM 36.0525 -94.8092 205° Southwest 229 264 24,000  Level Kansas City Center
Fri 05:00:44 PM 35.9942 -94.8428 205° Southwest 229 264 24,000  Level Kansas City Center
Fri 05:01:45 PM 35.9353 -94.8750 204° Southwest 230 265 24,000  Level Kansas City Center
Fri 05:03:53 PM 35.8033 -94.9544 206° Southwest 233 268 24,000  Level Fort Worth Center
Fri 05:04:53 PM 35.7456 -94.9867 204° Southwest 233 268 24,000  Level Fort Worth Center
Fri 05:05:54 PM 35.6858 -95.0217 205° Southwest 233 268 24,000  Level Fort Worth Center
Fri 05:06:53 PM 35.6258 -95.0517 202° Southwest 233 268 24,000  Level Fort Worth Center
Fri 05:07:53 PM 35.5681 -95.0839 204° Southwest 233 268 24,000  Level Fort Worth Center
Fri 05:08:54 PM 35.5103 -95.1161 204° Southwest 233 268 24,000  Level Fort Worth Center
Fri 05:09:53 PM 35.4506 -95.1508 205° Southwest 233 268 24,000  Level Fort Worth Center
Fri 05:10:53 PM 35.3906 -95.1856 205° Southwest 233 268 24,000  Level Fort Worth Center
Fri 05:11:54 PM 35.3328 -95.2175 204° Southwest 233 268 24,000  Level Fort Worth Center
Fri 05:12:53 PM 35.2750 -95.2494 204° Southwest 233 268 24,000 -50 Level Fort Worth Center
Fri 05:13:53 PM 35.2233 -95.2764 203° Southwest 233 268 23,900 -500 Descending Fort Worth Center
Fri 05:14:53 PM 35.1614 -95.3108 204° Southwest 238 274 23,000 -450 Descending Fort Worth Center
Fri 05:15:53 PM 35.0911 -95.3533 206° Southwest 248 285 23,000  Level Fort Worth Center
Fri 05:16:53 PM 35.0333 -95.3850 204° Southwest 248 285 23,000  Level Fort Worth Center
Fri 05:17:53 PM 34.9733 -95.4169 204° Southwest 243 280 23,000  Level Fort Worth Center
Fri 05:18:53 PM 34.9153 -95.4511 206° Southwest 237 273 23,000  Level Fort Worth Center
Fri 05:19:53 PM 34.8575 -95.4803 203° Southwest 237 273 23,000  Level Fort Worth Center
Fri 05:20:54 PM 34.7975 -95.5144 205° Southwest 237 273 23,000  Level Fort Worth Center
Fri 05:21:53 PM 34.7394 -95.5436 202° Southwest 237 273 23,000  Level Fort Worth Center
Fri 05:22:53 PM 34.6775 -95.5778 204° Southwest 242 278 23,000  Level Fort Worth Center
Fri 05:23:54 PM 34.6172 -95.6094 203° Southwest 242 278 23,000 -500 Level Fort Worth Center
Fri 05:24:53 PM 34.5594 -95.6408 204° Southwest 242 278 22,000 -1,462 Descending Fort Worth Center
Fri 05:25:53 PM 34.4931 -95.6775 204° Southwest 242 278 20,100 -2,033 Descending Fort Worth Center
Fri 05:26:54 PM 34.4228 -95.7142 203° Southwest 259 298 17,900 -2,150 Descending Fort Worth Center
Fri 05:27:53 PM 34.3564 -95.7531 206° Southwest 265 305 15,800 -2,118 Descending Fort Worth Center
Fri 05:28:53 PM 34.2922 -95.7872 204° Southwest 265 305 13,700 -2,331 Descending Fort Worth Center
Fri 05:29:54 PM 34.2322 -95.8208 205° Southwest 254 292 11,100 -1,850 Descending Fort Worth Center
Fri 05:30:53 PM 34.1719 -95.8522 203° Southwest 249 287 10,000 -555 Descending Fort Worth Center
Fri 05:31:53 PM 34.1161 -95.8808 203° Southwest 243 280 10,000  Level Fort Worth Center
Fri 05:32:54 PM 34.0539 -95.9144 204° Southwest 238 274 10,000  Level Fort Worth Center
Fri 05:33:53 PM 33.9958 -95.9456 204° Southwest 238 274 10,000  Level Fort Worth Center
Fri 05:34:53 PM 33.9336 -95.9789 204° Southwest 238 274 10,000  Level Fort Worth Center
Fri 05:35:54 PM 33.8733 -96.0100 203° Southwest 238 274 10,000  Level Fort Worth Center
Fri 05:36:53 PM 33.8133 -96.0461 207° Southwest 238 274 10,000  Level Fort Worth Center
Fri 05:37:53 PM 33.7572 -96.0744 203° Southwest 238 274 10,000  Level Fort Worth Center
Fri 05:38:54 PM 33.6886 -96.1078 202° Southwest 238 274 10,000  Level Fort Worth Center
Fri 05:39:53 PM 33.6369 -96.1386 206° Southwest 243 280 10,000  Level Fort Worth Center
Fri 05:40:53 PM 33.5683 -96.1744 204° Southwest 238 274 10,000  Level Fort Worth Center
Fri 05:41:53 PM 33.5144 -96.2025 203° Southwest 238 274 10,000 -50 Level Fort Worth Center
Fri 05:42:53 PM 33.4478 -96.2383 204° Southwest 238 274 9,900 -550 Descending Fort Worth Center
Fri 05:43:53 PM 33.3981 -96.2639 203° Southwest 233 268 8,900 -1,438 Descending Fort Worth Center
Fri 05:44:54 PM 33.3356 -96.2969 204° Southwest 228 262 7,000 -1,500 Descending Fort Worth Center
Fri 05:45:53 PM 33.2900 -96.3225 205° Southwest 218 251 5,900 -555 Descending Fort Worth Center
Fri 05:46:53 PM 33.2486 -96.3578 215° Southwest 180 207 5,900 -450 Level Fort Worth Center
Fri 05:47:53 PM 33.2217 -96.4003 233° Southwest 175 201 5,000 -397 Descending Fort Worth Center
Fri 05:49:09 PM 33.1833 -96.4667 235° Southwest 174 200 5,000  Level Dallas / Fort Worth TRACON
Fri 05:50:15 PM 33.1333 -96.4833 196° South 173 199 5,000  Level Dallas / Fort Worth TRACON
Fri 05:50:54 PM 33.1078 -96.4958 202° Southwest 159 183 5,000 -245 Level Fort Worth Center
Fri 05:51:53 PM 33.0639 -96.5011 186° South 165 190 4,600 -1,059 Descending Fort Worth Center
Fri 05:52:53 PM 33.0158 -96.5092 188° South 170 196 2,900 -793 Descending Fort Worth Center
Fri 05:53:54 PM 32.9681 -96.5169 188° South 180 207 3,000 50 Climbing Fort Worth Center
Fri 05:54:53 PM 32.9158 -96.5225 185° South 180 207 3,000 3,529 Level Fort Worth Center
Fri 05:55:53 PM 32.8636 -96.5281 185° South 180 207 10,000 3,471 Climbing Fort Worth Center
Fri 05:56:54 PM 32.8117 -96.5358 187° South 180 207 10,000  Level Fort Worth Center
Fri 05:58:00 PM 32.7470 -96.5304 180° South  Level Estimated
Fri 06:05:00 PM 32.7470 -96.5304 180° South  Level Estimated
Fri 06:06:00 PM 32.7470 -96.5304 180° South  Level Estimated
Fri 06:07:00 PM 32.7470 -96.5304 180° South  Level Estimated
Fri 06:08:00 PM 32.7470 -96.5304 180° South  Level Estimated
Fri 06:09:00 PM 32.7470 -96.5304 180° South  Level Estimated
Fri 06:10:00 PM 32.7470 -96.5304 180° South  Level Estimated
Fri 06:11:00 PM 32.7470 -96.5304 180° South  Level Estimated

Login

Don't have an account? Register now (free) for customized features, flight alerts, and more!